createdAt,value
2019-01-29T00:04:26.938Z,138.00
2019-01-29T00:19:42.902Z,123.63
2019-01-29T00:34:46.651Z,159.97
2019-01-29T00:50:10.449Z,112.43
2019-01-29T01:05:27.023Z,106.63
2019-01-29T01:20:30.634Z,120.77
2019-01-29T01:35:34.538Z,124.50
2019-01-29T01:50:57.777Z,121.40
2019-01-29T02:06:01.651Z,121.67
2019-01-29T02:21:24.797Z,112.13
2019-01-29T02:36:28.788Z,102.63
2019-01-29T02:51:32.602Z,107.60
2019-01-29T03:06:36.179Z,105.17
2019-01-29T03:21:39.982Z,107.67
2019-01-29T03:36:43.736Z,97.97
2019-01-29T03:51:47.569Z,100.20
2019-01-29T04:06:51.703Z,101.60
2019-01-29T04:21:55.535Z,97.53
2019-01-29T04:36:59.413Z,103.23
2019-01-29T04:52:03.355Z,113.47
2019-01-29T05:07:07.009Z,115.13
2019-01-29T05:22:10.885Z,125.07
2019-01-29T05:37:14.704Z,121.33
2019-01-29T05:52:18.690Z,120.07
2019-01-29T06:07:34.857Z,109.70
2019-01-29T06:22:38.605Z,123.07
2019-01-29T06:37:42.330Z,132.03
2019-01-29T06:53:05.776Z,125.23
2019-01-29T07:08:09.829Z,217.47
2019-01-29T07:23:13.806Z,96.67
2019-01-29T07:38:17.930Z,81.53
2019-01-29T07:53:40.966Z,77.97
2019-01-29T08:08:57.150Z,75.93
2019-01-29T08:24:13.673Z,73.40
2019-01-29T08:39:29.497Z,72.27
2019-01-29T08:54:33.622Z,71.37
2019-01-29T09:09:57.556Z,66.47
2019-01-29T09:25:01.876Z,67.63
2019-01-29T09:40:24.831Z,60.97
2019-01-29T09:55:30.047Z,55.47
2019-01-29T10:10:34.072Z,47.23
2019-01-29T10:25:38.222Z,44.27
2019-01-29T10:40:42.145Z,38.57
2019-01-29T10:55:47.440Z,35.23
2019-01-29T11:10:51.573Z,33.83
2019-01-29T11:26:14.805Z,31.60
2019-01-29T11:41:19.781Z,34.50
2019-01-29T11:56:24.046Z,33.77
2019-01-29T12:11:47.250Z,35.07
2019-01-29T12:27:10.576Z,34.60
2019-01-29T12:42:27.069Z,26.00
2019-01-29T12:57:30.859Z,25.70
2019-01-29T13:12:36.419Z,20.37
2019-01-29T13:27:59.638Z,17.80
2019-01-29T13:43:22.911Z,13.70
2019-01-29T13:58:26.569Z,12.03
2019-01-29T14:13:30.225Z,17.47
2019-01-29T14:28:34.091Z,19.43
2019-01-29T14:43:58.586Z,19.57
2019-01-29T14:59:02.224Z,19.27
2019-01-29T15:14:06.230Z,17.87
2019-01-29T15:29:09.860Z,21.43
2019-01-29T15:44:13.724Z,20.57
2019-01-29T15:59:17.673Z,12.70
2019-01-29T16:14:21.462Z,10.77
2019-01-29T16:29:25.342Z,12.23
2019-01-29T16:44:29.327Z,13.07
2019-01-29T16:59:33.088Z,12.20
2019-01-29T17:14:56.214Z,10.57
2019-01-29T17:30:12.174Z,13.63
2019-01-29T17:45:28.737Z,15.53
2019-01-29T18:00:40.298Z,14.43
2019-01-29T18:16:05.215Z,16.37
2019-01-29T18:31:28.455Z,17.77
2019-01-29T18:46:34.138Z,17.67
2019-01-29T19:01:57.480Z,18.03
2019-01-29T19:17:14.670Z,15.70
2019-01-29T19:32:31.125Z,14.00
2019-01-29T19:47:34.951Z,15.23
2019-01-29T20:02:38.890Z,14.97
2019-01-29T20:17:42.927Z,15.20
2019-01-29T20:32:58.720Z,33.30
2019-01-29T20:48:14.655Z,21.17
2019-01-29T21:03:18.405Z,14.00
2019-01-29T21:18:22.326Z,15.20
2019-01-29T21:33:26.143Z,14.53
2019-01-29T21:48:49.582Z,18.70
2019-01-29T22:03:53.528Z,26.13
2019-01-29T22:19:16.568Z,22.03
2019-01-29T22:34:20.360Z,18.47
2019-01-29T22:49:24.045Z,16.87
2019-01-29T23:04:27.845Z,21.00
2019-01-29T23:19:31.650Z,16.50
2019-01-29T23:34:35.342Z,18.63
2019-01-29T23:49:39.200Z,19.37
